Time;durP1;ratioP1;P1;durP2;ratioP2;P2;SDS_P1;SDS_P2;PMS_P1;PMS_P2;Temp;Humidity;BMP_temperature;BMP_pressure;BME280_temperature;BME280_humidity;BME280_pressure;Samples;Min_cycle;Max_cycle;Signal;HPM_P1;HPM_P2
2023/03/03 00:02:03;;;;;;;5.60;3.38;;;;;;;3.02;74.75;94806.47;5051635;28;20040;-83
2023/03/03 00:04:28;;;;;;;4.55;3.40;;;;;;;3.32;74.80;94842.50;5050465;28;20033;-84
2023/03/03 00:06:54;;;;;;;5.28;3.33;;;;;;;2.87;75.25;94809.84;5033793;28;20098;-84
2023/03/03 00:09:19;;;;;;;4.40;3.25;;;;;;;3.15;75.55;94850.28;5050474;28;20483;-84
2023/03/03 00:11:46;;;;;;;5.55;3.70;;;;;;;3.06;75.38;94817.38;5050227;28;20036;-84
2023/03/03 00:14:32;;;;;;;4.65;3.38;;;;;;;3.23;75.73;94845.59;5050410;28;20032;-83
2023/03/03 00:17:01;;;;;;;5.30;3.38;;;;;;;3.11;75.69;94844.47;5032937;28;20499;-83
2023/03/03 00:19:28;;;;;;;4.95;3.53;;;;;;;2.89;75.31;94788.31;5034005;28;20076;-83
2023/03/03 00:21:55;;;;;;;5.97;3.80;;;;;;;3.19;75.37;94843.25;5033831;28;20033;-84
2023/03/03 00:24:42;;;;;;;4.28;3.13;;;;;;;3.21;75.49;94844.81;5033699;28;20036;-83
2023/03/03 00:27:26;;;;;;;5.00;3.78;;;;;;;3.17;75.55;94845.06;5049811;28;20132;-84
2023/03/03 00:29:59;;;;;;;5.00;3.60;;;;;;;3.23;75.39;94830.19;5017995;28;20040;-83
2023/03/03 00:32:27;;;;;;;6.28;4.60;;;;;;;3.29;75.18;94826.44;5017476;28;20041;-84
2023/03/03 00:34:54;;;;;;;5.47;3.80;;;;;;;3.46;74.31;94826.34;5049865;28;20029;-83
2023/03/03 00:37:33;;;;;;;5.15;3.30;;;;;;;3.55;74.34;94828.41;5033351;28;20124;-83
2023/03/03 00:40:20;;;;;;;5.40;4.05;;;;;;;3.49;74.57;94825.34;5033895;28;20040;-84
2023/03/03 00:42:50;;;;;;;5.90;4.50;;;;;;;3.52;74.15;94814.91;5035816;28;20041;-84
2023/03/03 00:45:30;;;;;;;6.78;4.05;;;;;;;3.58;74.11;94812.81;5049765;28;20032;-83
2023/03/03 00:47:56;;;;;;;4.20;2.80;;;;;;;3.47;74.04;94815.16;5051263;28;20032;-83
2023/03/03 00:50:29;;;;;;;4.45;3.17;;;;;;;3.13;74.88;94803.34;5016841;28;20025;-83
2023/03/03 00:53:01;;;;;;;6.47;3.47;;;;;;;3.25;74.35;94786.44;5016875;28;20131;-82
2023/03/03 00:55:26;;;;;;;4.80;3.00;;;;;;;3.36;73.77;94779.78;5033287;28;20381;-83
2023/03/03 00:57:52;;;;;;;4.30;3.00;;;;;;;3.20;74.06;94762.75;5016559;28;20064;-84
2023/03/03 01:00:18;;;;;;;4.30;3.20;;;;;;;3.48;74.35;94795.44;5050863;28;20037;-83
2023/03/03 01:02:45;;;;;;;4.43;3.17;;;;;;;2.99;74.40;94742.47;5051174;28;20035;-84
2023/03/03 01:05:15;;;;;;;4.70;3.30;;;;;;;3.32;74.82;94787.75;5049652;28;20487;-83
2023/03/03 01:07:40;;;;;;;4.43;3.50;;;;;;;2.69;74.67;94707.28;5049731;28;20040;-83
2023/03/03 01:10:06;;;;;;;4.47;3.20;;;;;;;3.08;74.65;94741.97;5049576;28;20036;-83
2023/03/03 01:12:31;;;;;;;6.47;4.10;;;;;;;3.22;73.54;94736.06;5020338;28;20101;-84
2023/03/03 01:14:57;;;;;;;4.57;2.85;;;;;;;3.55;73.51;94768.50;5053685;28;20086;-84
2023/03/03 01:17:22;;;;;;;5.20;3.97;;;;;;;3.57;73.31;94785.50;5037018;28;20098;-84
2023/03/03 01:19:48;;;;;;;4.45;2.80;;;;;;;3.43;73.59;94761.50;5053733;28;20078;-83
2023/03/03 01:22:13;;;;;;;4.22;3.13;;;;;;;3.38;73.94;94774.56;5053688;28;20044;-84
2023/03/03 01:24:39;;;;;;;4.90;3.45;;;;;;;3.30;74.53;94776.75;5054952;28;20040;-84
2023/03/03 01:27:04;;;;;;;4.55;3.50;;;;;;;3.11;74.98;94772.59;5053541;28;20029;-84
2023/03/03 01:29:29;;;;;;;4.13;3.17;;;;;;;3.12;75.62;94774.28;5037029;28;20490;-84
2023/03/03 01:31:55;;;;;;;4.70;2.90;;;;;;;3.13;75.69;94770.78;5036652;28;20446;-83
2023/03/03 01:34:20;;;;;;;4.47;3.30;;;;;;;2.86;75.35;94738.91;5020022;28;20033;-84
2023/03/03 01:36:46;;;;;;;3.95;3.22;;;;;;;3.05;75.62;94759.28;5053303;28;20033;-84
2023/03/03 01:39:11;;;;;;;4.38;2.60;;;;;;;3.04;75.40;94758.47;5020095;28;20044;-83
2023/03/03 01:41:37;;;;;;;3.95;2.40;;;;;;;3.07;75.33;94760.84;5054326;28;20040;-83
2023/03/03 01:44:03;;;;;;;4.07;2.80;;;;;;;3.17;75.04;94762.91;5019984;28;20036;-84
2023/03/03 01:46:41;;;;;;;3.47;2.65;;;;;;;3.17;74.94;94758.59;5036484;28;20435;-83
2023/03/03 01:49:25;;;;;;;5.45;3.42;;;;;;;3.11;75.36;94743.53;5052971;28;20060;-83
2023/03/03 01:51:59;;;;;;;4.78;2.92;;;;;;;3.06;75.68;94753.22;5053107;28;20037;-84
2023/03/03 01:54:28;;;;;;;4.15;3.00;;;;;;;3.04;75.89;94758.47;5020446;28;20036;-83
2023/03/03 01:56:54;;;;;;;4.72;3.50;;;;;;;2.80;76.21;94734.09;5042854;28;20041;-84
2023/03/03 01:59:22;;;;;;;5.13;3.28;;;;;;;3.03;76.18;94754.22;5055744;28;20060;-84
2023/03/03 02:01:48;;;;;;;5.22;3.30;;;;;;;3.09;75.88;94755.63;5071015;28;20036;-84
2023/03/03 02:04:14;;;;;;;6.03;3.75;;;;;;;2.78;76.29;94710.25;5072644;28;20032;-84
2023/03/03 02:06:43;;;;;;;6.38;4.20;;;;;;;3.13;75.53;94757.94;5038880;28;20037;-83
2023/03/03 02:09:18;;;;;;;5.22;3.47;;;;;;;3.11;75.65;94759.75;5055715;28;20430;-83
2023/03/03 02:11:43;;;;;;;6.15;3.63;;;;;;;2.97;75.98;94736.59;5073716;28;20131;-84
2023/03/03 02:14:12;;;;;;;6.32;4.15;;;;;;;2.78;76.93;94761.56;5055899;28;20043;-82
2023/03/03 02:16:38;;;;;;;5.53;3.72;;;;;;;2.88;77.03;94743.03;5055752;28;20033;-83
2023/03/03 02:19:04;;;;;;;6.22;3.97;;;;;;;2.56;77.12;94716.53;5072325;28;20546;-84
2023/03/03 02:21:30;;;;;;;5.03;3.45;;;;;;;2.88;76.95;94757.63;5055709;28;20051;-84
2023/03/03 02:24:01;;;;;;;4.43;3.13;;;;;;;2.98;76.34;94758.78;5053778;28;20028;-84
2023/03/03 02:26:28;;;;;;;5.20;3.33;;;;;;;2.97;76.81;94761.44;5073470;28;20150;-83
2023/03/03 02:28:53;;;;;;;6.07;3.55;;;;;;;2.82;76.51;94747.69;5055886;28;20031;-83
2023/03/03 02:31:21;;;;;;;6.25;3.58;;;;;;;2.99;76.12;94760.44;5072161;28;20025;-83
2023/03/03 02:33:48;;;;;;;5.13;3.42;;;;;;;2.93;76.53;94754.81;5055496;28;20024;-83
2023/03/03 02:36:18;;;;;;;4.43;3.05;;;;;;;2.88;76.95;94752.50;5055598;28;20033;-83
2023/03/03 02:38:56;;;;;;;5.80;3.60;;;;;;;2.83;76.93;94757.03;5072195;28;20041;-83
2023/03/03 02:41:47;;;;;;;4.95;3.60;;;;;;;2.82;76.75;94755.38;5073028;28;20032;-83
2023/03/03 02:44:14;;;;;;;;;;;;;;;2.95;77.02;94748.66;5073520;28;20035;-83
2023/03/03 02:46:41;;;;;;;4.50;2.95;;;;;;;2.97;76.78;94757.13;5071840;28;19920;-83
2023/03/03 02:49:08;;;;;;;6.50;3.97;;;;;;;2.88;76.45;94757.63;5038930;28;20032;-82
2023/03/03 02:51:34;;;;;;;5.93;4.10;;;;;;;2.73;76.16;94715.66;5071787;28;20408;-83
2023/03/03 02:53:59;;;;;;;6.43;3.70;;;;;;;3.01;76.19;94750.94;5055082;28;20127;-82
2023/03/03 02:56:25;;;;;;;6.47;4.15;;;;;;;3.12;75.65;94753.72;5054631;28;20031;-83
2023/03/03 02:58:50;;;;;;;7.38;4.45;;;;;;;3.06;75.79;94743.78;5054984;28;20033;-83
2023/03/03 03:01:16;;;;;;;6.45;3.95;;;;;;;3.10;75.83;94727.31;5038136;28;20028;-82
2023/03/03 03:03:41;;;;;;;6.53;4.28;;;;;;;3.15;75.72;94739.91;5071510;28;20482;-81
2023/03/03 03:06:07;;;;;;;7.38;4.60;;;;;;;3.19;76.02;94748.25;5071499;28;20031;-83
2023/03/03 03:08:32;;;;;;;6.57;4.35;;;;;;;3.12;75.80;94746.03;5054989;28;20090;-83
2023/03/03 03:10:58;;;;;;;7.85;4.90;;;;;;;3.08;75.83;94748.84;5054796;28;20032;-83
2023/03/03 03:13:24;;;;;;;7.03;4.40;;;;;;;2.89;76.34;94744.69;5071542;28;20025;-83
2023/03/03 03:15:49;;;;;;;6.97;4.75;;;;;;;2.50;76.92;94690.41;5054693;28;20037;-83
2023/03/03 03:18:15;;;;;;;6.68;4.88;;;;;;;2.81;77.25;94728.06;5054853;28;20021;-82
2023/03/03 03:20:40;;;;;;;8.05;5.68;;;;;;;2.87;77.37;94726.00;5037926;28;20086;-83
2023/03/03 03:23:07;;;;;;;8.13;5.57;;;;;;;2.77;77.40;94734.28;5054655;28;20482;-83
2023/03/03 03:25:32;;;;;;;7.88;5.03;;;;;;;3.00;77.82;94748.44;5037759;28;20089;-83
2023/03/03 03:27:57;;;;;;;8.02;5.40;;;;;;;2.93;77.60;94744.56;5071343;28;20032;-83
2023/03/03 03:30:23;;;;;;;8.13;5.13;;;;;;;3.04;77.92;94740.50;5037733;28;20437;-83
2023/03/03 03:32:48;;;;;;;8.55;5.70;;;;;;;3.00;77.67;94746.69;5037834;28;20202;-83
2023/03/03 03:35:16;;;;;;;7.88;5.00;;;;;;;2.91;78.00;94739.50;5072124;28;20021;-83
2023/03/03 03:37:41;;;;;;;8.23;5.45;;;;;;;2.55;78.26;94679.00;5054533;28;20032;-82
2023/03/03 03:40:07;;;;;;;10.23;5.57;;;;;;;2.83;78.22;94744.22;5070784;28;20513;-82
2023/03/03 03:42:33;;;;;;;7.85;5.65;;;;;;;2.74;79.04;94732.69;5072264;28;20040;-83
2023/03/03 03:44:58;;;;;;;7.43;5.05;;;;;;;2.46;79.45;94710.25;5072043;28;20509;-82
2023/03/03 03:47:24;;;;;;;9.90;6.40;;;;;;;2.77;78.79;94729.97;5037494;28;20464;-82
2023/03/03 03:49:49;;;;;;;9.75;5.95;;;;;;;2.94;79.15;94726.50;5054116;28;20028;-82
2023/03/03 03:52:14;;;;;;;9.40;6.18;;;;;;;2.69;79.51;94732.13;5071170;28;20064;-81
2023/03/03 03:54:40;;;;;;;9.20;5.65;;;;;;;2.52;79.43;94706.53;5054341;28;20039;-80
2023/03/03 03:57:06;;;;;;;8.75;5.35;;;;;;;2.71;79.45;94730.31;5071906;28;20048;-80
2023/03/03 03:59:31;;;;;;;9.63;6.15;;;;;;;2.53;79.70;94729.53;5054242;28;20024;-80
2023/03/03 04:01:56;;;;;;;10.57;6.78;;;;;;;2.61;80.41;94722.25;5071975;28;20036;-80
2023/03/03 04:04:22;;;;;;;10.35;6.07;;;;;;;2.49;79.47;94692.16;5053640;28;20062;-80
2023/03/03 04:06:48;;;;;;;9.57;5.72;;;;;;;2.67;79.84;94724.50;5070312;28;20486;-80
2023/03/03 04:09:13;;;;;;;14.60;6.15;;;;;;;2.04;79.61;94591.13;5053937;28;20438;-79
2023/03/03 04:11:39;;;;;;;7.50;5.13;;;;;;;2.69;80.07;94709.84;5070158;28;20490;-80
2023/03/03 04:14:04;;;;;;;9.00;5.80;;;;;;;2.76;79.67;94717.22;5053721;28;20028;-80
2023/03/03 04:16:30;;;;;;;7.38;5.32;;;;;;;2.68;80.43;94725.34;5053499;28;20433;-80
2023/03/03 04:18:55;;;;;;;8.38;5.40;;;;;;;2.91;79.45;94706.97;5053678;28;20237;-80
2023/03/03 04:21:21;;;;;;;7.78;5.10;;;;;;;2.77;79.37;94688.91;5053550;28;20054;-80
2023/03/03 04:23:46;;;;;;;7.47;5.13;;;;;;;2.89;80.00;94703.63;5036849;28;20035;-80
2023/03/03 04:26:12;;;;;;;7.88;4.70;;;;;;;3.13;79.99;94724.56;5070022;28;20201;-80
2023/03/03 04:28:37;;;;;;;6.95;4.63;;;;;;;2.93;79.99;94691.50;5070028;28;20033;-80
2023/03/03 04:31:03;;;;;;;7.35;4.93;;;;;;;3.18;79.85;94720.94;5036788;28;20483;-80
2023/03/03 04:33:28;;;;;;;6.55;4.22;;;;;;;3.28;80.01;94722.06;5071678;28;20107;-80
2023/03/03 04:35:54;;;;;;;6.13;4.25;;;;;;;3.33;79.15;94722.66;5036697;28;20029;-80
2023/03/03 04:38:19;;;;;;;6.78;4.57;;;;;;;3.32;79.20;94721.00;5071016;28;20033;-80
2023/03/03 04:40:45;;;;;;;6.22;4.03;;;;;;;3.32;78.57;94703.03;5053156;28;20033;-80
2023/03/03 04:43:11;;;;;;;5.65;3.92;;;;;;;3.47;78.59;94719.31;5036674;28;20039;-80
2023/03/03 04:45:37;;;;;;;5.15;3.00;;;;;;;3.47;78.21;94717.56;5070417;28;20036;-80
2023/03/03 04:48:02;;;;;;;4.53;3.30;;;;;;;3.37;78.29;94695.88;5071333;28;20390;-80
2023/03/03 04:50:28;;;;;;;4.28;2.90;;;;;;;3.40;78.20;94702.56;5053262;28;20020;-80
2023/03/03 04:52:53;;;;;;;4.28;2.80;;;;;;;3.52;78.44;94713.00;5053033;28;20043;-80
2023/03/03 04:55:19;;;;;;;3.78;2.55;;;;;;;3.40;78.20;94689.72;5053053;28;20028;-80
2023/03/03 04:57:44;;;;;;;4.03;2.50;;;;;;;3.58;78.42;94722.09;5052743;28;20052;-80
2023/03/03 05:00:12;;;;;;;3.40;2.70;;;;;;;3.57;78.29;94725.59;5070101;28;20025;-80
2023/03/03 05:02:40;;;;;;;3.92;2.63;;;;;;;3.49;77.93;94713.16;5053131;28;20040;-80
2023/03/03 05:05:06;;;;;;;4.53;3.20;;;;;;;2.82;77.53;94604.00;5036735;28;20028;-80
2023/03/03 05:07:32;;;;;;;4.22;2.95;;;;;;;3.56;77.71;94723.91;5052858;28;20040;-80
2023/03/03 05:09:58;;;;;;;4.80;3.20;;;;;;;3.61;77.82;94726.22;5052798;28;20040;-80
2023/03/03 05:12:23;;;;;;;5.20;3.33;;;;;;;3.55;77.89;94725.66;5036156;28;20090;-80
2023/03/03 05:14:48;;;;;;;4.10;3.05;;;;;;;3.34;78.08;94702.03;5053121;28;20031;-80
2023/03/03 05:17:14;;;;;;;5.13;2.95;;;;;;;3.34;77.85;94706.31;5035981;28;20555;-80
2023/03/03 05:19:40;;;;;;;5.55;3.05;;;;;;;3.53;78.06;94732.63;5069433;28;20435;-79
2023/03/03 05:22:05;;;;;;;7.05;4.03;;;;;;;3.52;78.17;94720.69;5070647;28;20056;-79
2023/03/03 05:24:31;;;;;;;10.48;4.72;;;;;;;3.59;78.65;94731.44;5036338;28;20573;-80
2023/03/03 05:26:56;;;;;;;7.35;4.43;;;;;;;3.44;78.07;94709.19;5070573;28;20035;-80
2023/03/03 05:29:22;;;;;;;5.15;3.50;;;;;;;3.77;77.38;94734.72;5069291;28;20047;-80
2023/03/03 05:31:47;;;;;;;5.03;3.13;;;;;;;3.56;77.92;94711.88;5069357;28;20033;-80
2023/03/03 05:34:12;;;;;;;6.07;4.15;;;;;;;3.64;78.29;94741.47;5036216;28;20029;-79
2023/03/03 05:36:38;;;;;;;11.52;7.38;;;;;;;3.65;78.29;94727.69;5052710;28;20037;-79
2023/03/03 05:39:03;;;;;;;12.25;8.10;;;;;;;3.54;77.32;94711.16;5052647;28;20033;-79
2023/03/03 05:41:29;;;;;;;12.77;9.77;;;;;;;3.57;77.54;94721.28;5069067;28;20031;-79
2023/03/03 05:43:54;;;;;;;12.50;8.95;;;;;;;3.64;78.19;94732.00;5052432;28;20039;-80
2023/03/03 05:46:20;;;;;;;12.32;8.93;;;;;;;3.46;78.20;94708.22;5052350;28;20033;-79
2023/03/03 05:48:45;;;;;;;14.35;9.23;;;;;;;3.69;77.55;94732.59;5069244;28;20029;-80
2023/03/03 05:51:11;;;;;;;12.70;8.85;;;;;;;3.69;78.02;94739.47;5070304;28;20039;-79
2023/03/03 05:53:36;;;;;;;9.68;6.85;;;;;;;3.83;76.36;94739.50;5070959;28;20082;-80
2023/03/03 05:56:02;;;;;;;11.43;7.15;;;;;;;3.54;76.00;94700.91;5070559;28;20483;-80
2023/03/03 05:58:29;;;;;;;10.38;6.78;;;;;;;3.72;75.88;94734.97;5072668;28;20495;-80
2023/03/03 06:00:54;;;;;;;9.85;7.10;;;;;;;3.83;75.88;94746.38;5056411;28;20406;-80
2023/03/03 06:03:20;;;;;;;12.85;7.38;;;;;;;3.72;75.88;94718.72;5072684;28;20123;-80
2023/03/03 06:05:45;;;;;;;10.35;7.30;;;;;;;3.57;76.16;94695.59;5072618;28;20028;-80
2023/03/03 06:08:11;;;;;;;9.23;6.93;;;;;;;3.54;76.16;94677.78;5074195;28;20037;-80
2023/03/03 06:10:36;;;;;;;10.45;6.38;;;;;;;3.98;74.67;94743.78;5055833;28;20024;-79
2023/03/03 06:13:02;;;;;;;9.95;6.40;;;;;;;3.65;75.00;94707.13;5072536;28;20178;-79
2023/03/03 06:15:27;;;;;;;11.70;7.38;;;;;;;3.67;75.06;94711.28;5056122;28;20035;-78
2023/03/03 06:17:53;;;;;;;10.25;6.72;;;;;;;3.86;75.61;94739.31;5039091;28;20033;-80
2023/03/03 06:20:18;;;;;;;9.43;6.18;;;;;;;3.98;75.71;94748.91;5055998;28;20043;-80
2023/03/03 06:22:43;;;;;;;11.68;7.38;;;;;;;3.98;74.40;94736.06;5072338;28;20039;-79
2023/03/03 06:25:09;;;;;;;10.73;7.68;;;;;;;3.96;74.67;94731.91;5038894;28;20028;-80
2023/03/03 06:27:35;;;;;;;13.50;8.93;;;;;;;4.04;75.03;94752.88;5038979;28;20044;-79
2023/03/03 06:30:00;;;;;;;17.85;9.88;;;;;;;3.86;75.15;94718.75;5056029;28;20028;-80
2023/03/03 06:32:25;;;;;;;16.50;9.85;;;;;;;4.06;75.13;94747.63;5055465;28;20040;-79
2023/03/03 06:34:51;;;;;;;13.85;9.15;;;;;;;3.33;75.48;94646.44;5055525;28;20024;-80
2023/03/03 06:37:17;;;;;;;14.45;9.85;;;;;;;3.98;75.13;94755.78;5073385;28;20059;-79
2023/03/03 06:39:42;;;;;;;15.52;9.88;;;;;;;3.83;75.33;94730.97;5073160;28;20028;-79
2023/03/03 06:42:08;;;;;;;15.02;9.70;;;;;;;4.09;75.37;94758.53;5038959;28;20044;-79
2023/03/03 06:44:34;;;;;;;13.82;9.00;;;;;;;4.10;75.21;94751.69;5073195;28;20090;-79
2023/03/03 06:47:00;;;;;;;15.45;8.43;;;;;;;4.15;74.49;94740.22;5038772;28;20090;-79
2023/03/03 06:49:25;;;;;;;12.50;8.20;;;;;;;4.10;74.65;94756.81;5038939;28;20452;-78
2023/03/03 06:51:51;;;;;;;13.02;7.70;;;;;;;4.22;72.77;94745.81;5055150;28;20468;-79
2023/03/03 06:54:18;;;;;;;13.73;8.52;;;;;;;4.06;72.17;94709.06;5072963;28;20078;-79
2023/03/03 06:56:44;;;;;;;14.00;8.30;;;;;;;3.55;73.12;94635.75;5071422;28;20110;-79
2023/03/03 06:59:18;;;;;;;14.98;8.90;;;;;;;4.19;73.85;94738.28;5055402;28;20024;-80
2023/03/03 07:01:44;;;;;;;18.35;11.57;;;;;;;4.25;74.66;94749.03;5038628;28;20482;-79
2023/03/03 07:04:30;;;;;;;11.25;7.68;;;;;;;4.34;74.35;94762.25;5071566;28;20021;-80
2023/03/03 07:07:17;;;;;;;9.38;5.93;;;;;;;4.10;73.39;94718.25;5040005;28;20448;-79
2023/03/03 07:09:44;;;;;;;11.05;7.25;;;;;;;4.23;74.00;94744.88;5054970;28;20460;-79
2023/03/03 07:12:12;;;;;;;16.17;10.30;;;;;;;4.27;74.96;94753.25;5036173;28;20102;-79
2023/03/03 07:14:54;;;;;;;10.70;8.48;;;;;;;3.69;74.51;94647.78;5036258;28;20519;-78
2023/03/03 07:17:20;;;;;;;11.55;8.05;;;;;;;4.36;74.24;94745.81;5054322;28;20437;-78
2023/03/03 07:19:46;;;;;;;20.75;12.10;;;;;;;4.59;74.03;94762.44;5036542;28;20024;-78
2023/03/03 07:22:23;;;;;;;15.30;9.30;;;;;;;4.59;73.26;94756.47;5069611;28;20422;-78
2023/03/03 07:25:00;;;;;;;29.92;18.90;;;;;;;4.14;73.03;94668.31;5036794;28;20494;-79
2023/03/03 07:27:27;;;;;;;16.63;10.68;;;;;;;4.75;73.23;94754.63;5039146;28;20410;-79
2023/03/03 07:29:55;;;;;;;16.88;10.43;;;;;;;4.79;73.16;94745.81;5072311;28;20033;-79
2023/03/03 07:32:27;;;;;;;25.90;15.82;;;;;;;4.88;73.08;94731.56;5037875;28;20036;-79
2023/03/03 07:34:54;;;;;;;16.08;10.82;;;;;;;5.10;72.93;94756.81;5070779;28;20441;-79
2023/03/03 07:37:30;;;;;;;17.92;11.43;;;;;;;4.90;73.27;94712.53;5071315;28;20047;-79
2023/03/03 07:39:56;;;;;;;20.60;13.52;;;;;;;5.23;73.53;94749.13;5070885;28;20032;-80
2023/03/03 07:42:22;;;;;;;21.15;14.45;;;;;;;5.30;73.26;94753.78;5054419;28;20627;-79
2023/03/03 07:44:51;;;;;;;14.65;10.13;;;;;;;5.36;72.80;94740.53;5053905;28;20499;-79
2023/03/03 07:47:18;;;;;;;18.20;12.07;;;;;;;5.38;71.37;94745.59;5070677;28;20040;-79
2023/03/03 07:49:44;;;;;;;13.95;9.35;;;;;;;5.35;71.23;94743.22;5070652;28;20027;-79
2023/03/03 07:52:26;;;;;;;12.05;8.05;;;;;;;5.44;71.23;94744.38;5070828;28;20028;-80
2023/03/03 07:54:52;;;;;;;11.77;8.32;;;;;;;5.53;71.21;94738.63;5071070;28;20090;-79
2023/03/03 07:57:25;;;;;;;10.63;7.82;;;;;;;5.65;71.20;94739.56;5053913;28;20612;-80
2023/03/03 07:59:53;;;;;;;9.70;6.68;;;;;;;5.41;71.40;94708.50;5070825;28;20036;-79
2023/03/03 08:02:39;;;;;;;11.02;8.18;;;;;;;5.47;69.76;94713.25;5037279;28;20037;-79
2023/03/03 08:05:20;;;;;;;8.65;5.88;;;;;;;5.70;69.61;94735.78;5037254;28;20028;-79
2023/03/03 08:07:45;;;;;;;10.68;7.35;;;;;;;5.78;69.19;94733.53;5053924;28;20056;-80
2023/03/03 08:10:48;;;;;;;8.90;6.30;;;;;;;5.81;69.80;94728.16;5071881;28;20055;-80
2023/03/03 08:13:31;;;;;;;8.55;6.25;;;;;;;5.87;70.62;94734.66;5072160;28;20429;-79
2023/03/03 08:16:01;;;;;;;25.85;23.08;;;;;;;5.93;70.12;94733.44;5057434;28;20065;-80
2023/03/03 08:18:28;;;;;;;25.15;21.92;;;;;;;5.76;69.84;94730.22;5049753;28;20069;-79
2023/03/03 08:20:56;;;;;;;10.27;8.65;;;;;;;5.78;69.40;94733.53;5015242;28;20112;-79
2023/03/03 08:23:22;;;;;;;25.20;19.38;;;;;;;5.70;69.03;94711.75;5049927;28;20045;-80
2023/03/03 08:25:48;;;;;;;20.42;15.48;;;;;;;5.76;69.81;94707.00;5033740;28;20501;-79
2023/03/03 08:28:14;;;;;;;15.75;11.93;;;;;;;5.68;68.87;94729.88;5050275;28;20036;-80
2023/03/03 08:30:39;;;;;;;16.58;12.43;;;;;;;5.60;69.64;94722.66;5033284;28;20407;-79
2023/03/03 08:33:05;;;;;;;14.57;10.15;;;;;;;5.68;69.58;94727.31;5016980;28;20059;-79
2023/03/03 08:35:30;;;;;;;23.15;16.40;;;;;;;5.72;69.89;94723.63;5051050;28;20043;-79
2023/03/03 08:37:56;;;;;;;12.50;9.18;;;;;;;5.66;68.52;94718.06;5051432;28;20494;-79
2023/03/03 08:40:21;;;;;;;17.65;10.73;;;;;;;5.57;69.77;94702.25;5051170;28;20098;-80
2023/03/03 08:42:47;;;;;;;19.30;12.52;;;;;;;5.65;69.95;94712.03;5032431;28;20029;-80
2023/03/03 08:45:13;;;;;;;11.90;7.72;;;;;;;5.26;70.67;94695.66;5033019;28;20396;-78
2023/03/03 08:47:39;;;;;;;14.80;10.63;;;;;;;5.18;71.96;94709.94;5016655;28;20155;-80
2023/03/03 08:50:05;;;;;;;15.18;8.65;;;;;;;5.19;72.42;94724.50;5049745;28;20021;-80
2023/03/03 08:52:30;;;;;;;15.93;10.90;;;;;;;5.16;73.55;94720.34;5033098;28;20040;-80
2023/03/03 08:54:56;;;;;;;14.65;9.63;;;;;;;5.06;73.67;94730.38;5050020;28;20227;-80
2023/03/03 08:57:21;;;;;;;13.70;9.75;;;;;;;4.87;74.97;94725.56;5051243;28;20491;-80
2023/03/03 08:59:47;;;;;;;12.50;8.40;;;;;;;4.87;72.97;94720.41;5049882;28;20103;-80
2023/03/03 09:02:12;;;;;;;24.13;15.65;;;;;;;4.90;74.22;94730.53;5033220;28;20037;-80
2023/03/03 09:04:38;;;;;;;16.58;10.45;;;;;;;4.44;75.11;94660.47;5033128;28;20036;-80
2023/03/03 09:07:03;;;;;;;16.67;8.93;;;;;;;4.77;73.47;94721.09;5033079;28;20465;-80
2023/03/03 09:09:29;;;;;;;16.10;8.85;;;;;;;4.80;75.30;94721.72;5050815;28;20451;-80
2023/03/03 09:11:58;;;;;;;12.82;8.07;;;;;;;4.75;74.87;94728.06;5033576;28;20029;-79
2023/03/03 09:14:26;;;;;;;15.00;8.65;;;;;;;4.73;74.58;94730.72;5049663;28;20454;-80
2023/03/03 09:16:53;;;;;;;16.40;10.20;;;;;;;4.29;75.09;94666.53;5032844;28;20041;-80
2023/03/03 09:19:31;;;;;;;14.25;10.27;;;;;;;4.72;74.93;94725.69;5033792;28;20045;-79
2023/03/03 09:22:00;;;;;;;17.48;10.10;;;;;;;4.77;75.68;94697.94;5049222;28;20065;-80
2023/03/03 09:24:27;;;;;;;17.13;9.95;;;;;;;4.82;75.15;94698.44;5032970;28;20032;-80
2023/03/03 09:26:53;;;;;;;13.27;8.68;;;;;;;4.97;73.63;94717.28;5049253;28;20041;-80
2023/03/03 09:29:29;;;;;;;17.05;9.30;;;;;;;5.23;73.73;94721.59;5032761;28;20021;-80
2023/03/03 09:32:15;;;;;;;15.93;10.13;;;;;;;5.04;73.34;94688.47;5050304;28;20120;-80
2023/03/03 09:34:41;;;;;;;23.83;16.23;;;;;;;5.21;73.44;94731.19;5038555;28;20025;-80
2023/03/03 09:37:31;;;;;;;14.20;9.52;;;;;;;5.27;72.65;94712.78;5036681;28;20418;-80
2023/03/03 09:39:57;;;;;;;12.88;8.68;;;;;;;5.21;71.50;94728.63;5053128;28;20032;-80
2023/03/03 09:42:34;;;;;;;10.93;7.55;;;;;;;5.24;71.32;94725.84;5054231;28;20041;-80
2023/03/03 09:45:06;;;;;;;12.32;7.57;;;;;;;5.19;71.54;94719.34;5052730;28;20035;-80
2023/03/03 09:47:40;;;;;;;;;;;;;;;5.33;71.81;94727.00;5053450;28;20411;-80
2023/03/03 09:50:14;;;;;;;10.52;7.43;;;;;;;5.16;71.67;94715.22;5036465;28;19913;-80
2023/03/03 09:52:55;;;;;;;10.23;6.50;;;;;;;4.68;70.75;94619.53;5054370;28;20037;-80
2023/03/03 09:55:39;;;;;;;9.38;6.85;;;;;;;5.46;70.68;94727.03;5053187;28;20414;-80
2023/03/03 09:58:23;;;;;;;10.88;7.38;;;;;;;5.62;70.79;94726.88;5054427;28;20056;-80
2023/03/03 10:01:12;;;;;;;10.18;6.55;;;;;;;5.77;70.49;94719.00;5065587;28;20034;-81
2023/03/03 10:04:15;;;;;;;13.05;7.85;;;;;;;5.94;69.97;94722.25;5073596;28;20396;-80
2023/03/03 10:07:00;;;;;;;14.32;8.00;;;;;;;5.94;69.96;94714.53;5073918;28;20072;-80
2023/03/03 10:09:46;;;;;;;11.70;7.43;;;;;;;5.98;69.65;94713.38;5055915;28;20021;-80
2023/03/03 10:12:34;;;;;;;11.93;8.15;;;;;;;6.02;68.68;94709.69;5041661;28;20425;-80
2023/03/03 10:15:24;;;;;;;10.38;7.70;;;;;;;6.03;68.86;94719.06;5056502;28;20029;-80
2023/03/03 10:17:53;;;;;;;12.48;8.18;;;;;;;5.30;69.14;94601.00;5052308;28;20117;-80
2023/03/03 10:20:52;;;;;;;11.68;8.52;;;;;;;5.49;69.08;94614.31;5072889;28;20036;-80
2023/03/03 10:23:55;;;;;;;12.80;8.70;;;;;;;6.21;68.61;94704.09;5073136;28;20028;-80
2023/03/03 10:26:56;;;;;;;13.07;8.10;;;;;;;6.24;67.53;94699.56;5073513;28;20499;-81
2023/03/03 10:29:49;;;;;;;16.15;9.50;;;;;;;6.26;68.11;94681.41;5007897;28;20046;-80
2023/03/03 10:32:37;;;;;;;16.25;10.00;;;;;;;6.43;68.23;94696.53;5072686;28;20060;-79
2023/03/03 10:35:15;;;;;;;22.63;11.60;;;;;;;6.36;68.11;94681.63;5072962;28;20521;-80
2023/03/03 10:38:03;;;;;;;15.80;9.75;;;;;;;6.40;67.63;94701.09;5055717;28;20036;-80
2023/03/03 10:40:47;;;;;;;17.63;11.20;;;;;;;6.57;66.88;94689.63;5074305;28;20044;-80
2023/03/03 10:43:19;;;;;;;13.57;9.38;;;;;;;6.58;67.01;94691.28;5073330;28;20028;-80
2023/03/03 10:45:51;;;;;;;12.25;8.68;;;;;;;6.26;66.40;94642.69;5073618;28;20031;-80
2023/03/03 10:48:22;;;;;;;13.38;9.68;;;;;;;6.61;66.92;94685.91;5073096;28;20064;-80
2023/03/03 10:51:24;;;;;;;15.27;10.07;;;;;;;6.62;68.13;94687.56;5056144;28;20033;-80
2023/03/03 10:53:58;;;;;;;33.58;19.42;;;;;;;6.67;67.61;94690.66;5072699;28;20090;-81
2023/03/03 10:56:37;;;;;;;53.05;29.15;;;;;;;6.74;66.99;94681.53;5073454;28;20029;-80
2023/03/03 10:59:09;;;;;;;27.88;17.77;;;;;;;6.55;67.06;94648.44;5072493;28;20035;-81
2023/03/03 11:01:44;;;;;;;18.58;13.55;;;;;;;6.72;66.40;94679.06;5072393;28;20483;-81
2023/03/03 11:04:57;;;;;;;14.10;9.52;;;;;;;6.60;66.77;94684.25;5072140;28;20032;-80
2023/03/03 11:07:42;;;;;;;12.68;9.45;;;;;;;6.67;67.01;94681.13;5019898;28;20203;-80
2023/03/03 11:10:25;;;;;;;12.00;8.60;;;;;;;6.67;66.82;94677.75;5014918;28;20108;-80
2023/03/03 11:12:52;;;;;;;11.77;8.48;;;;;;;6.61;66.51;94670.44;5061230;28;20044;-81
2023/03/03 11:15:40;;;;;;;12.32;9.63;;;;;;;6.68;66.50;94669.06;5072086;28;20036;-80
2023/03/03 11:18:53;;;;;;;12.15;9.32;;;;;;;6.75;66.83;94665.13;5052702;28;20044;-81
2023/03/03 11:21:22;;;;;;;12.00;9.45;;;;;;;6.80;67.01;94659.63;5033837;28;20029;-80
2023/03/03 11:24:04;;;;;;;14.63;10.02;;;;;;;6.75;67.12;94653.97;5001203;28;20075;-81
2023/03/03 11:26:44;;;;;;;13.30;9.65;;;;;;;6.79;67.95;94652.81;5065253;28;20123;-81
2023/03/03 11:29:15;;;;;;;12.98;9.50;;;;;;;6.58;67.67;94657.72;5071920;28;20028;-81
2023/03/03 11:31:47;;;;;;;13.70;9.30;;;;;;;6.64;67.56;94655.53;5072612;28;20444;-81
2023/03/03 11:34:35;;;;;;;12.38;9.15;;;;;;;6.68;67.74;94651.78;5055214;28;20133;-81
2023/03/03 11:37:05;;;;;;;13.45;10.35;;;;;;;6.66;68.51;94648.53;5055170;28;20043;-80
2023/03/03 11:39:31;;;;;;;14.00;10.15;;;;;;;6.76;68.32;94653.84;5054985;28;20031;-81
2023/03/03 11:42:05;;;;;;;15.27;10.52;;;;;;;6.76;68.23;94653.84;5054485;28;20037;-80
2023/03/03 11:45:04;;;;;;;13.32;9.85;;;;;;;6.47;68.28;94630.91;5071317;28;20517;-80
2023/03/03 11:47:36;;;;;;;16.48;11.77;;;;;;;6.62;68.87;94654.81;5038240;28;20562;-80
2023/03/03 11:50:02;;;;;;;;;;;;;;;6.68;68.84;94650.97;5073035;28;20499;-80
2023/03/03 11:52:38;;;;;;;15.35;11.57;;;;;;;6.54;68.41;94623.56;5072578;28;19916;-80